Lulu Pass Weather Station

This weather station provides temperature, relative humidity (RH), wind speed, gust or max wind speed, and wind direction at 10014ft near Lulu Pass at the head of Fisher Creek. This data can be used with temperature and precipitation data from the Fisher Creek SNOTEL site.

This weather station was purchased by the Friends of the Avalanche Center.

If the data has not been updated recently you can view it directly on datagarrison.com

Elevation
10014ft
Jump to table bottom
Date Time Temperature
deg F
RH, % Wind Speed Wind Gust Wind Direction
01/26/22 17:00 11.5 91 6 18 SW - 234
01/26/22 16:00 12.6 93 8 17 W - 277
01/26/22 15:00 12.2 94 9 18 NW - 316
01/26/22 14:00 10.3 93 10 18 NW - 309
01/26/22 13:00 10.2 92 7 14 W - 288
01/26/22 12:00 9.5 92 10 18 NW - 307
01/26/22 11:00 6.0 91 8 16 NW - 295
01/26/22 10:00 4.7 91 6 13 NW - 310
01/26/22 09:00 4.5 90 5 9 NW - 323
01/26/22 08:00 1.3 89 11 16 NW - 313
01/26/22 07:00 2.6 89 11 15 NW - 307
01/26/22 06:00 2.1 89 13 18 NW - 314
01/26/22 05:00 1.5 89 12 18 NW - 306
01/26/22 04:00 1.6 89 17 24 NW - 317
01/26/22 03:00 2.5 89 12 20 NW - 295
01/26/22 02:00 2.9 89 12 19 NW - 298
01/26/22 01:00 3.4 89 13 24 NW - 305
01/26/22 00:00 3.3 89 16 21 NW - 314
01/25/22 23:00 3.4 89 18 25 NW - 313
01/25/22 22:00 3.8 90 14 22 NW - 305
01/25/22 21:00 3.6 90 9 16 W - 288
01/25/22 20:00 3.7 90 10 15 NW - 296
01/25/22 19:00 4.3 90 10 17 W - 285
01/25/22 18:00 5.0 90 9 18 W - 285
01/25/22 17:00 5.8 91 10 20 W - 272
01/25/22 16:00 7.6 91 8 20 W - 258
01/25/22 15:00 10.2 91 8 17 W - 256
01/25/22 14:00 9.6 92 7 14 W - 267
01/25/22 13:00 11.4 92 6 14 W - 285
01/25/22 12:00 7.4 92 8 11 NW - 295
01/25/22 11:00 9.8 92 7 16 NW - 299
01/25/22 10:00 8.9 91 5 9 NW - 299
01/25/22 09:00 5.9 90 9 15 NW - 312
01/25/22 08:00 5.2 90 10 15 NW - 306
01/25/22 07:00 5.4 90 12 16 NW - 310
01/25/22 06:00 5.5 90 17 26 NW - 324
01/25/22 05:00 6.0 90 16 22 NW - 323
01/25/22 04:00 6.2 90 13 21 NW - 316
01/25/22 03:00 7.0 90 13 21 NW - 314
01/25/22 02:00 6.6 90 12 18 NW - 320
01/25/22 01:00 7.1 90 10 15 NW - 331
01/25/22 00:00 6.0 90 4 9 NW - 320
01/24/22 23:00 6.5 90 5 10 NW - 320
01/24/22 22:00 7.0 90 4 8 NW - 331
01/24/22 21:00 7.3 91 3 6 N - 1
01/24/22 20:00 8.6 91 6 15 N - 21
01/24/22 19:00 9.5 91 9 13 NW - 306
01/24/22 18:00 10.6 91 9 11 NW - 327
01/24/22 17:00 10.3 91 10 15 NW - 313
01/24/22 16:00 10.5 91 11 14 NW - 300